Del Bonita, Canada
Current Conditions -  °F | °C
As of 3:56 PM on Saturday 20 Dec 2014 (Local Time) from KCTB Reporting Station
Clear Clear  
Wind Chill: 33°   Ceiling: Unl
Heat Index: 33°   Visibility: 10mi
Dew Point: 23°   Wind: 0mph
Humidity: 66%   Direction: NA
Pressure: 29.69"   Gusts: NA
Location:  49.03°N, 112.79°W
Report Text: KCTB 202256Z AUTO 00000KT 10SM CLR 01/M05 A2969 RMK AO2 SLP077 T00061050
Loading
Personal Weather Stations






























Interactive Weather Map New forecast layout! Learn more

10-Day Weather Forecast

Advertisements
Track Severe Weather on mobile